createdAt,value
2023-04-08T00:00:39.538Z,5.12
2023-04-08T00:03:27.368Z,8.65
2023-04-08T00:06:14.774Z,9.18
2023-04-08T00:09:02.326Z,10.85
2023-04-08T00:11:49.659Z,7.17
2023-04-08T00:14:38.307Z,6.70
2023-04-08T00:17:26.081Z,5.42
2023-04-08T00:20:13.877Z,8.85
2023-04-08T00:23:01.120Z,6.47
2023-04-08T00:25:48.404Z,7.58
2023-04-08T00:28:36.414Z,10.55
2023-04-08T00:31:23.729Z,5.15
2023-04-08T00:34:11.572Z,5.25
2023-04-08T00:36:59.160Z,7.20
2023-04-08T00:39:46.750Z,5.60
2023-04-08T00:42:34.334Z,7.75
2023-04-08T00:45:21.583Z,4.70
2023-04-08T00:48:09.161Z,5.40
2023-04-08T00:50:56.529Z,6.17
2023-04-08T00:53:43.754Z,5.00
2023-04-08T00:56:33.016Z,4.25
2023-04-08T00:59:20.210Z,5.75
2023-04-08T01:02:16.977Z,3.95
2023-04-08T01:05:26.058Z,5.72
2023-04-08T01:08:14.031Z,6.60
2023-04-08T01:11:04.100Z,3.55
2023-04-08T01:13:53.624Z,3.12
2023-04-08T01:16:43.298Z,3.92
2023-04-08T01:19:34.232Z,5.65
2023-04-08T01:22:36.833Z,2.98
2023-04-08T01:25:26.976Z,4.47
2023-04-08T01:28:17.273Z,5.75
2023-04-08T01:31:06.052Z,3.27
2023-04-08T01:33:54.094Z,3.62
2023-04-08T01:36:42.975Z,6.97
2023-04-08T01:39:31.166Z,4.00
2023-04-08T01:42:18.706Z,3.80
2023-04-08T01:45:08.100Z,8.33
2023-04-08T01:47:56.046Z,4.78
2023-04-08T01:50:46.196Z,3.02
2023-04-08T01:53:34.408Z,6.28
2023-04-08T01:56:23.739Z,4.22
2023-04-08T01:59:15.488Z,8.23
2023-04-08T02:02:05.280Z,8.70
2023-04-08T02:04:53.971Z,5.80
2023-04-08T02:07:41.975Z,4.00
2023-04-08T02:10:29.313Z,4.60
2023-04-08T02:13:16.961Z,8.08
2023-04-08T02:16:07.289Z,8.38
2023-04-08T02:19:04.562Z,4.58
2023-04-08T02:21:54.810Z,3.60
2023-04-08T02:24:42.638Z,8.65
2023-04-08T02:27:32.722Z,6.33
2023-04-08T02:30:21.474Z,4.33
2023-04-08T02:33:09.630Z,7.87
2023-04-08T02:35:57.884Z,5.30
2023-04-08T02:38:50.545Z,9.98
2023-04-08T02:41:38.210Z,8.75
2023-04-08T02:44:25.672Z,5.55
2023-04-08T02:47:13.036Z,5.08
2023-04-08T02:50:00.512Z,6.17
2023-04-08T02:52:48.009Z,7.58
2023-04-08T02:55:35.769Z,6.92
2023-04-08T02:58:23.097Z,7.22
2023-04-08T03:01:10.664Z,8.40
2023-04-08T03:03:58.050Z,7.97
2023-04-08T03:06:45.811Z,10.30
2023-04-08T03:09:33.025Z,10.53
2023-04-08T03:12:20.372Z,8.48
2023-04-08T03:15:08.653Z,8.58
2023-04-08T03:17:55.841Z,10.48
2023-04-08T03:20:43.170Z,12.75
2023-04-08T03:23:30.707Z,11.20
2023-04-08T03:26:18.236Z,17.48
2023-04-08T03:29:06.849Z,12.60
2023-04-08T03:31:54.937Z,8.28
2023-04-08T03:34:42.746Z,9.63
2023-04-08T03:37:30.346Z,12.47
2023-04-08T03:40:18.245Z,11.97
2023-04-08T03:43:07.128Z,11.83
2023-04-08T03:45:54.647Z,11.50
2023-04-08T03:48:42.296Z,12.30
2023-04-08T03:51:29.547Z,13.10
2023-04-08T03:54:17.135Z,14.05
2023-04-08T03:57:05.050Z,17.07
2023-04-08T03:59:52.257Z,21.48
2023-04-08T04:02:39.868Z,20.02
2023-04-08T04:05:27.300Z,17.77
2023-04-08T04:08:14.886Z,16.75
2023-04-08T04:11:02.286Z,17.17
2023-04-08T04:13:50.033Z,17.23
2023-04-08T04:16:37.417Z,18.00
2023-04-08T04:19:24.923Z,15.95
2023-04-08T04:22:12.217Z,18.32
2023-04-08T04:24:59.719Z,25.50
2023-04-08T04:27:47.110Z,18.00
2023-04-08T04:30:34.424Z,18.82
2023-04-08T04:33:21.939Z,18.60
2023-04-08T04:36:09.207Z,25.00
2023-04-08T04:38:56.776Z,23.83
2023-04-08T04:41:47.376Z,22.45
2023-04-08T04:44:34.638Z,17.48
2023-04-08T04:47:21.884Z,20.30
2023-04-08T04:50:09.824Z,20.48
2023-04-08T04:52:57.069Z,21.50
2023-04-08T04:55:44.439Z,23.32
2023-04-08T04:58:32.230Z,30.23
2023-04-08T05:01:19.504Z,28.67
2023-04-08T05:04:07.452Z,21.70
2023-04-08T05:06:55.305Z,27.55
2023-04-08T05:09:42.778Z,24.82
2023-04-08T05:12:30.029Z,26.52
2023-04-08T05:15:17.540Z,27.82
2023-04-08T05:18:05.655Z,24.67
2023-04-08T05:20:53.825Z,23.42
2023-04-08T05:23:41.198Z,24.40
2023-04-08T05:26:28.737Z,29.92
2023-04-08T05:29:16.079Z,27.42
2023-04-08T05:32:03.603Z,29.27
2023-04-08T05:34:50.888Z,26.82
2023-04-08T05:37:38.500Z,24.35
2023-04-08T05:40:28.491Z,22.90
2023-04-08T05:43:15.997Z,23.87
2023-04-08T05:46:11.422Z,25.90
2023-04-08T05:48:58.797Z,32.03
2023-04-08T05:51:46.121Z,23.92
2023-04-08T05:54:33.424Z,24.40
2023-04-08T05:57:20.997Z,28.83
2023-04-08T06:00:09.803Z,26.80
2023-04-08T06:02:57.370Z,27.55
2023-04-08T06:05:45.093Z,28.10
2023-04-08T06:08:33.097Z,24.72
2023-04-08T06:11:20.473Z,27.65
2023-04-08T06:14:07.871Z,29.75
2023-04-08T06:16:57.152Z,28.83
2023-04-08T06:19:45.134Z,23.15
2023-04-08T06:22:32.397Z,21.17
2023-04-08T06:25:20.088Z,23.75
2023-04-08T06:28:07.839Z,23.55
2023-04-08T06:30:55.703Z,31.57
2023-04-08T06:33:43.195Z,31.05
2023-04-08T06:36:30.588Z,28.42
2023-04-08T06:39:19.459Z,23.22
2023-04-08T06:42:06.730Z,20.57
2023-04-08T06:44:54.054Z,25.20
2023-04-08T06:47:41.782Z,25.65
2023-04-08T06:50:29.149Z,23.05
2023-04-08T06:53:16.725Z,23.47
2023-04-08T06:56:04.212Z,22.98
2023-04-08T06:58:52.100Z,21.75
2023-04-08T07:01:39.567Z,23.92
2023-04-08T07:04:27.044Z,22.37
2023-04-08T07:07:14.437Z,23.18
2023-04-08T07:10:02.272Z,20.80
2023-04-08T07:12:49.797Z,21.35
2023-04-08T07:15:37.196Z,17.60
2023-04-08T07:18:24.433Z,18.48
2023-04-08T07:21:12.662Z,17.12
2023-04-08T07:24:00.153Z,18.42
2023-04-08T07:26:47.771Z,18.55
2023-04-08T07:29:35.156Z,19.73
2023-04-08T07:32:22.393Z,17.73
2023-04-08T07:35:10.113Z,17.52
2023-04-08T07:37:57.723Z,17.02
2023-04-08T07:40:45.934Z,16.07
2023-04-08T07:43:38.473Z,17.42
2023-04-08T07:46:25.838Z,13.55
2023-04-08T07:49:13.498Z,16.15
2023-04-08T07:52:02.563Z,17.40
2023-04-08T07:54:55.698Z,16.37
2023-04-08T07:57:43.534Z,15.25
2023-04-08T08:00:33.188Z,15.05
2023-04-08T08:03:20.787Z,15.65
2023-04-08T08:06:08.340Z,14.65
2023-04-08T08:08:56.075Z,14.85
2023-04-08T08:11:43.578Z,16.75
2023-04-08T08:14:31.115Z,14.15
2023-04-08T08:17:18.625Z,13.70
2023-04-08T08:20:07.231Z,15.23
2023-04-08T08:22:57.599Z,12.65
2023-04-08T08:25:42.834Z,15.10
2023-04-08T08:28:30.201Z,14.45
2023-04-08T08:31:17.603Z,14.75
2023-04-08T08:34:05.255Z,16.75
2023-04-08T08:36:53.089Z,18.15
2023-04-08T08:39:42.087Z,16.37
2023-04-08T08:42:29.706Z,19.70
2023-04-08T08:45:17.256Z,14.83
2023-04-08T08:48:04.695Z,17.05
2023-04-08T08:50:52.730Z,16.25
2023-04-08T08:53:42.131Z,14.40
2023-04-08T08:56:29.118Z,13.22
2023-04-08T08:59:16.665Z,14.75
2023-04-08T09:02:03.976Z,16.23
2023-04-08T09:05:05.845Z,19.07
2023-04-08T09:07:53.426Z,14.15
2023-04-08T09:10:41.046Z,17.37
2023-04-08T09:13:31.617Z,17.05
2023-04-08T09:16:20.504Z,16.48
2023-04-08T09:19:12.268Z,16.07
2023-04-08T09:22:07.890Z,16.85
2023-04-08T09:24:55.853Z,17.62
2023-04-08T09:27:43.091Z,15.05
2023-04-08T09:30:32.001Z,16.65
2023-04-08T09:33:20.857Z,19.57
2023-04-08T09:36:08.603Z,17.17
2023-04-08T09:38:56.692Z,18.45
2023-04-08T09:41:44.887Z,16.48
2023-04-08T09:44:33.929Z,16.82
2023-04-08T09:47:24.532Z,17.05
2023-04-08T09:50:12.216Z,15.75
2023-04-08T09:53:04.957Z,15.08
2023-04-08T09:55:54.912Z,14.70
2023-04-08T09:58:48.551Z,14.58
2023-04-08T10:01:41.215Z,15.75
2023-04-08T10:04:30.158Z,13.95
2023-04-08T10:07:17.138Z,14.10
2023-04-08T10:10:05.555Z,11.57
2023-04-08T10:12:53.306Z,12.53
2023-04-08T10:15:43.071Z,15.00
2023-04-08T10:18:33.859Z,13.60
2023-04-08T10:21:42.307Z,18.12
2023-04-08T10:24:29.763Z,14.25
2023-04-08T10:27:37.652Z,13.35
2023-04-08T10:30:33.611Z,13.53
2023-04-08T10:33:26.914Z,10.48
2023-04-08T10:36:15.236Z,10.55
2023-04-08T10:39:02.726Z,9.83
2023-04-08T10:41:51.750Z,10.98
2023-04-08T10:44:41.949Z,12.13
2023-04-08T10:47:29.692Z,14.83
2023-04-08T10:50:18.980Z,13.83
2023-04-08T10:53:07.278Z,11.05
2023-04-08T10:55:55.145Z,10.82
2023-04-08T10:58:54.098Z,9.65
2023-04-08T11:01:42.861Z,8.28
2023-04-08T11:04:30.180Z,8.43
2023-04-08T11:07:19.591Z,6.83
2023-04-08T11:10:07.430Z,7.72
2023-04-08T11:12:58.305Z,6.83
2023-04-08T11:15:45.957Z,8.23
2023-04-08T11:18:35.096Z,7.58
2023-04-08T11:21:25.769Z,7.67
2023-04-08T11:24:13.600Z,8.73
2023-04-08T11:27:02.690Z,8.93
2023-04-08T11:29:50.771Z,8.98
2023-04-08T11:32:39.052Z,8.00
2023-04-08T11:35:31.157Z,9.25
2023-04-08T11:38:20.456Z,8.85
2023-04-08T11:41:08.107Z,9.35
2023-04-08T11:43:57.427Z,8.05
2023-04-08T11:46:47.537Z,7.58
2023-04-08T11:49:47.622Z,7.97
2023-04-08T11:52:46.446Z,8.55
2023-04-08T11:55:34.808Z,12.07
2023-04-08T11:58:22.812Z,8.80
2023-04-08T12:01:10.837Z,8.85
2023-04-08T12:04:00.092Z,10.78
2023-04-08T12:06:48.353Z,8.63
2023-04-08T12:09:35.743Z,7.90
2023-04-08T12:12:23.226Z,9.55
2023-04-08T12:15:11.624Z,8.10
2023-04-08T12:17:59.290Z,11.70
2023-04-08T12:20:46.789Z,10.93
2023-04-08T12:23:34.421Z,7.97
2023-04-08T12:26:22.783Z,7.70
2023-04-08T12:29:11.614Z,9.00
2023-04-08T12:31:59.236Z,8.75
2023-04-08T12:34:47.061Z,10.20
2023-04-08T12:37:34.517Z,7.90
2023-04-08T12:40:22.024Z,11.18
2023-04-08T12:43:09.264Z,9.20
2023-04-08T12:45:57.100Z,8.88
2023-04-08T12:48:45.174Z,9.98
2023-04-08T12:51:32.871Z,8.25
2023-04-08T12:54:20.510Z,7.25
2023-04-08T12:57:08.724Z,7.67
2023-04-08T12:59:56.676Z,10.50
2023-04-08T13:02:44.414Z,8.80
2023-04-08T13:05:42.899Z,6.70
2023-04-08T13:08:20.895Z,7.30
2023-04-08T13:11:09.360Z,6.12
2023-04-08T13:13:56.832Z,7.03
2023-04-08T13:16:43.834Z,5.83
2023-04-08T13:19:31.473Z,6.65
2023-04-08T13:22:18.714Z,6.33
2023-04-08T13:25:06.607Z,5.92
2023-04-08T13:27:54.440Z,7.60
2023-04-08T13:30:42.668Z,7.80
2023-04-08T13:33:29.849Z,7.20
2023-04-08T13:36:17.119Z,7.47
2023-04-08T13:39:04.792Z,5.95
2023-04-08T13:41:53.627Z,6.12
2023-04-08T13:44:41.562Z,6.08
2023-04-08T13:47:29.107Z,7.47
2023-04-08T13:50:17.007Z,7.55
2023-04-08T13:53:04.581Z,9.00
2023-04-08T13:55:53.717Z,8.05
2023-04-08T13:58:40.853Z,7.12
2023-04-08T14:01:28.289Z,8.53
2023-04-08T14:04:15.504Z,5.10
2023-04-08T14:07:02.681Z,7.83
2023-04-08T14:09:50.341Z,6.83
2023-04-08T14:12:37.930Z,7.42
2023-04-08T14:15:25.423Z,7.37
2023-04-08T14:18:13.311Z,5.72
2023-04-08T14:21:01.123Z,6.42
2023-04-08T14:23:48.422Z,8.13
2023-04-08T14:26:36.319Z,6.10
2023-04-08T14:29:24.992Z,6.60
2023-04-08T14:32:13.142Z,6.75
2023-04-08T14:35:00.573Z,6.85
2023-04-08T14:37:47.792Z,9.00
2023-04-08T14:40:37.163Z,10.53
2023-04-08T14:43:24.251Z,9.58
2023-04-08T14:46:11.732Z,9.75
2023-04-08T14:48:59.312Z,7.45
2023-04-08T14:51:46.545Z,8.78
2023-04-08T14:54:33.985Z,10.32
2023-04-08T14:57:21.491Z,10.80
2023-04-08T15:00:09.980Z,7.83
2023-04-08T15:02:57.415Z,9.63
2023-04-08T15:05:48.853Z,10.50
2023-04-08T15:08:36.612Z,13.18
2023-04-08T15:11:24.223Z,8.28
2023-04-08T15:14:11.769Z,10.75
2023-04-08T15:16:59.085Z,9.48
2023-04-08T15:19:46.759Z,17.37
2023-04-08T15:22:34.385Z,12.70
2023-04-08T15:25:21.843Z,11.18
2023-04-08T15:28:09.223Z,10.50
2023-04-08T15:30:56.926Z,11.50
2023-04-08T15:33:46.477Z,10.93
2023-04-08T15:36:35.948Z,9.38
2023-04-08T15:39:26.674Z,10.80
2023-04-08T15:42:14.064Z,10.40
2023-04-08T15:45:01.739Z,10.25
2023-04-08T15:47:49.080Z,10.72
2023-04-08T15:50:36.717Z,10.45
2023-04-08T15:53:24.271Z,10.82
2023-04-08T15:56:18.773Z,10.90
2023-04-08T15:59:06.184Z,11.18
2023-04-08T16:01:53.761Z,12.90
2023-04-08T16:04:41.554Z,10.28
2023-04-08T16:07:28.586Z,13.83
2023-04-08T16:10:16.230Z,10.45
2023-04-08T16:13:04.175Z,12.25
2023-04-08T16:15:52.118Z,10.45
2023-04-08T16:18:42.034Z,13.03
2023-04-08T16:21:30.476Z,11.50
2023-04-08T16:24:19.342Z,12.30
2023-04-08T16:27:06.910Z,12.88
2023-04-08T16:29:54.378Z,12.18
2023-04-08T16:32:41.893Z,11.85
2023-04-08T16:35:29.255Z,12.63
2023-04-08T16:38:16.986Z,12.93
2023-04-08T16:41:06.312Z,11.22
2023-04-08T16:43:53.915Z,13.88
2023-04-08T16:49:22.696Z,13.93
2023-04-08T16:52:10.346Z,16.27
2023-04-08T16:54:59.122Z,15.15
2023-04-08T16:57:46.594Z,13.60
2023-04-08T17:00:36.374Z,16.87
2023-04-08T17:03:23.687Z,13.40
2023-04-08T17:06:15.059Z,15.55
2023-04-08T17:09:03.763Z,12.50
2023-04-08T17:11:51.210Z,12.63
2023-04-08T17:14:38.969Z,16.27
2023-04-08T17:17:26.585Z,15.03
2023-04-08T17:20:13.909Z,13.08
2023-04-08T17:23:01.375Z,12.65
2023-04-08T17:25:48.671Z,13.10
2023-04-08T17:28:36.937Z,11.55
2023-04-08T17:31:24.172Z,12.13
2023-04-08T17:34:11.518Z,10.10
2023-04-08T17:36:59.612Z,10.10
2023-04-08T17:39:47.662Z,13.98
2023-04-08T17:42:35.070Z,10.78
2023-04-08T17:45:26.003Z,11.25
2023-04-08T17:48:13.555Z,8.20
2023-04-08T17:51:02.568Z,10.93
2023-04-08T17:53:50.405Z,9.75
2023-04-08T17:56:42.268Z,9.10
2023-04-08T17:59:29.720Z,6.35
2023-04-08T18:02:17.353Z,6.90
2023-04-08T18:05:06.495Z,5.72
2023-04-08T18:07:55.311Z,7.20
2023-04-08T18:10:43.503Z,7.22
2023-04-08T18:13:31.121Z,6.50
2023-04-08T18:16:20.521Z,7.78
2023-04-08T18:19:07.957Z,5.92
2023-04-08T18:21:55.444Z,6.17
2023-04-08T18:24:42.924Z,6.47
2023-04-08T18:27:30.676Z,9.05
2023-04-08T18:30:18.167Z,5.35
2023-04-08T18:33:06.645Z,6.03
2023-04-08T18:35:54.545Z,8.78
2023-04-08T18:38:48.054Z,6.78
2023-04-08T18:41:35.295Z,6.35
2023-04-08T18:44:23.326Z,6.15
2023-04-08T18:47:11.285Z,6.22
2023-04-08T18:49:58.829Z,6.28
2023-04-08T18:52:46.105Z,5.97
2023-04-08T18:55:38.367Z,5.67
2023-04-08T18:58:27.337Z,5.97
2023-04-08T19:01:16.103Z,5.95
2023-04-08T19:04:03.532Z,7.25
2023-04-08T19:06:51.314Z,6.78
2023-04-08T19:09:40.001Z,7.62
2023-04-08T19:12:27.682Z,10.38
2023-04-08T19:15:15.730Z,9.20
2023-04-08T19:18:04.015Z,6.78
2023-04-08T19:20:51.693Z,8.65
2023-04-08T19:23:39.365Z,8.80
2023-04-08T19:26:26.798Z,7.53
2023-04-08T19:29:14.115Z,7.08
2023-04-08T19:32:04.407Z,8.53
2023-04-08T19:34:51.627Z,8.00
2023-04-08T19:37:39.297Z,6.35
2023-04-08T19:40:26.609Z,8.75
2023-04-08T19:43:14.903Z,8.00
2023-04-08T19:46:02.480Z,8.08
2023-04-08T19:48:49.728Z,9.85
2023-04-08T19:51:37.420Z,7.25
2023-04-08T19:54:24.823Z,8.65
2023-04-08T19:57:12.235Z,8.73
2023-04-08T19:59:59.618Z,8.35
2023-04-08T20:02:52.327Z,7.90
2023-04-08T20:05:39.880Z,8.38
2023-04-08T20:08:27.123Z,7.50
2023-04-08T20:11:14.561Z,9.10
2023-04-08T20:14:02.113Z,6.60
2023-04-08T20:16:49.803Z,10.78
2023-04-08T20:19:37.278Z,8.73
2023-04-08T20:22:24.509Z,8.28
2023-04-08T20:25:12.473Z,9.48
2023-04-08T20:27:59.888Z,10.38
2023-04-08T20:30:48.112Z,8.85
2023-04-08T20:33:36.954Z,9.50
2023-04-08T20:36:24.933Z,9.00
2023-04-08T20:39:12.465Z,9.33
2023-04-08T20:42:00.146Z,9.80
2023-04-08T20:44:47.707Z,10.80
2023-04-08T20:47:35.524Z,8.45
2023-04-08T20:50:23.225Z,9.33
2023-04-08T20:53:12.317Z,9.35
2023-04-08T20:55:59.832Z,10.75
2023-04-08T20:58:47.549Z,9.60
2023-04-08T21:01:34.933Z,10.58
2023-04-08T21:04:23.791Z,10.85
2023-04-08T21:07:11.680Z,10.98
2023-04-08T21:09:59.242Z,10.13
2023-04-08T21:12:46.726Z,8.70
2023-04-08T21:15:34.078Z,9.25
2023-04-08T21:18:21.632Z,7.83
2023-04-08T21:21:13.818Z,9.93
2023-04-08T21:24:01.726Z,10.75
2023-04-08T21:26:48.833Z,9.60
2023-04-08T21:29:36.204Z,9.78
2023-04-08T21:32:23.796Z,10.90
2023-04-08T21:35:11.514Z,10.58
2023-04-08T21:37:58.758Z,9.98
2023-04-08T21:40:46.139Z,9.85
2023-04-08T21:43:33.584Z,10.10
2023-04-08T21:46:22.802Z,11.00
2023-04-08T21:49:11.384Z,10.30
2023-04-08T21:51:58.639Z,10.23
2023-04-08T21:54:51.496Z,11.22
2023-04-08T21:57:41.535Z,10.63
2023-04-08T22:00:30.197Z,9.40
2023-04-08T22:03:17.733Z,11.48
2023-04-08T22:06:06.808Z,8.70
2023-04-08T22:08:54.035Z,9.95
2023-04-08T22:11:42.312Z,8.58
2023-04-08T22:14:29.662Z,9.98
2023-04-08T22:17:17.070Z,8.88
2023-04-08T22:20:04.553Z,9.50
2023-04-08T22:22:52.242Z,10.25
2023-04-08T22:25:39.797Z,8.18
2023-04-08T22:28:27.042Z,9.53
2023-04-08T22:31:14.694Z,10.60
2023-04-08T22:34:02.013Z,9.75
2023-04-08T22:36:49.328Z,9.83
2023-04-08T22:39:36.626Z,9.83
2023-04-08T22:42:24.350Z,9.25
2023-04-08T22:45:11.880Z,8.05
2023-04-08T22:47:59.851Z,12.35
2023-04-08T22:50:47.601Z,10.23
2023-04-08T22:53:34.880Z,11.08
2023-04-08T22:56:23.219Z,9.33
2023-04-08T22:59:10.931Z,9.80
2023-04-08T23:01:58.322Z,12.78
2023-04-08T23:04:46.063Z,10.80
2023-04-08T23:07:33.310Z,10.63
2023-04-08T23:10:20.859Z,11.50
2023-04-08T23:13:08.275Z,11.38
2023-04-08T23:15:55.700Z,11.20
2023-04-08T23:18:43.243Z,10.50
2023-04-08T23:21:31.143Z,10.10
2023-04-08T23:24:18.560Z,12.00
2023-04-08T23:27:06.265Z,10.95
2023-04-08T23:29:53.520Z,11.10
2023-04-08T23:32:41.077Z,11.63
2023-04-08T23:35:28.610Z,12.82
2023-04-08T23:38:15.959Z,11.48
2023-04-08T23:41:06.797Z,12.75
2023-04-08T23:43:54.404Z,12.53
2023-04-08T23:46:41.750Z,10.43
2023-04-08T23:49:29.936Z,11.55
2023-04-08T23:52:17.229Z,12.05
2023-04-08T23:55:04.468Z,12.40
2023-04-08T23:57:53.668Z,11.48
